EDDP/LEJ METAR and TAF weather

Enter ICAO airport designator
Station Type Date Time Source
EDDP METAR 2020/11/25 22:50 UTC NOAA

EDDP 252250Z 20009KT CAVOK 02/M00 Q1020 NOSIG


Station Type Date Time Source
EDDP Decoded METAR 2020/11/25 22:50 UTC NOAA

Leipzig-Schkeuditz, Germany (EDDP) 51-25N 012-14E 149M
Nov 25, 2020 - 05:50 PM EST / 2020.11.25 2250 UTC
Wind: from the SSW (200 degrees) at 10 MPH (9 KT):0
Visibility: greater than 7 mile(s):0
Temperature: 35 F (2 C)
Windchill: 26 F (-3 C):1
Dew Point: 32 F (0 C)
Relative Humidity: 86%
Pressure (altimeter): 30.12 in. Hg (1020 hPa)
ob: EDDP 252250Z 20009KT CAVOK 02/M00 Q1020 NOSIG
cycle: 23

Station Type Date Time Source
EDDP TAF 2020/11/25 18:27 UTC NOAA

TAF EDDP 251700Z 2518/2618 21008KT CAVOK

Example: see airport list